createdAt,value
2017-07-20T00:01:34.745Z,21.36
2017-07-20T00:04:06.178Z,21.57
2017-07-20T00:06:37.600Z,21.00
2017-07-20T00:09:09.536Z,21.00
2017-07-20T00:11:41.506Z,21.18
2017-07-20T00:14:13.704Z,20.95
2017-07-20T00:16:45.289Z,20.94
2017-07-20T00:19:16.561Z,20.90
2017-07-20T00:21:48.391Z,21.04
2017-07-20T00:24:20.601Z,20.94
2017-07-20T00:26:52.875Z,20.53
2017-07-20T00:29:25.687Z,20.36
2017-07-20T00:31:57.117Z,20.08
2017-07-20T00:34:28.744Z,19.83
2017-07-20T00:37:00.516Z,19.89
2017-07-20T00:39:32.165Z,19.64
2017-07-20T00:42:03.662Z,19.96
2017-07-20T00:44:35.024Z,19.83
2017-07-20T00:47:06.316Z,19.84
2017-07-20T00:49:37.964Z,19.77
2017-07-20T00:52:09.221Z,19.96
2017-07-20T00:54:40.841Z,19.87
2017-07-20T00:57:12.361Z,19.88
2017-07-20T00:59:43.770Z,19.88
2017-07-20T01:02:15.139Z,19.94
2017-07-20T01:04:46.986Z,19.94
2017-07-20T01:07:18.373Z,19.96
2017-07-20T01:09:49.990Z,19.95
2017-07-20T01:12:21.341Z,20.02
2017-07-20T01:14:52.823Z,19.94
2017-07-20T01:17:24.196Z,19.98
2017-07-20T01:19:55.800Z,20.04
2017-07-20T01:22:29.949Z,20.06
2017-07-20T01:25:01.472Z,20.06
2017-07-20T01:27:32.957Z,20.11
2017-07-20T01:30:04.430Z,20.11
2017-07-20T01:32:35.737Z,20.16
2017-07-20T01:35:08.528Z,20.16
2017-07-20T01:37:41.078Z,20.21
2017-07-20T01:40:12.504Z,20.16
2017-07-20T01:42:44.198Z,20.20
2017-07-20T01:45:15.784Z,20.25
2017-07-20T01:47:47.764Z,20.24
2017-07-20T01:50:19.697Z,20.23
2017-07-20T01:52:51.189Z,20.28
2017-07-20T01:55:22.666Z,20.20
2017-07-20T01:57:54.342Z,20.31
2017-07-20T02:00:26.000Z,20.35
2017-07-20T02:02:58.069Z,20.36
2017-07-20T02:05:29.559Z,20.43
2017-07-20T02:08:00.812Z,20.47
2017-07-20T02:10:33.452Z,20.55
2017-07-20T02:13:04.767Z,20.69
2017-07-20T02:15:36.704Z,20.69
2017-07-20T02:18:08.081Z,20.76
2017-07-20T02:20:42.525Z,20.77
2017-07-20T02:23:17.025Z,20.81
2017-07-20T02:25:48.423Z,20.79
2017-07-20T02:28:19.854Z,20.91
2017-07-20T02:30:51.298Z,20.84
2017-07-20T02:33:22.600Z,20.90
2017-07-20T02:35:54.138Z,20.68
2017-07-20T02:38:25.609Z,20.78
2017-07-20T02:40:57.520Z,20.80
2017-07-20T02:43:29.284Z,20.85
2017-07-20T02:46:00.955Z,20.83
2017-07-20T02:48:32.424Z,20.99
2017-07-20T02:51:04.467Z,21.01
2017-07-20T02:53:35.988Z,21.17
2017-07-20T02:56:07.549Z,21.48
2017-07-20T02:58:39.741Z,21.54
2017-07-20T03:01:12.865Z,21.81
2017-07-20T03:03:44.413Z,21.76
2017-07-20T03:06:16.129Z,21.72
2017-07-20T03:08:48.621Z,21.70
2017-07-20T03:11:20.078Z,21.88
2017-07-20T03:13:51.301Z,21.80
2017-07-20T03:16:22.798Z,22.24
2017-07-20T03:18:54.404Z,22.82
2017-07-20T03:21:25.681Z,22.45
2017-07-20T03:23:57.171Z,22.59
2017-07-20T03:26:28.962Z,22.01
2017-07-20T03:29:00.560Z,22.46
2017-07-20T03:31:32.883Z,22.18
2017-07-20T03:34:04.888Z,21.77
2017-07-20T03:36:36.275Z,21.94
2017-07-20T03:39:07.615Z,21.57
2017-07-20T03:41:38.874Z,21.45
2017-07-20T03:44:10.234Z,20.95
2017-07-20T03:46:41.579Z,21.29
2017-07-20T03:49:12.844Z,21.64
2017-07-20T03:51:44.262Z,21.84
2017-07-20T03:54:15.925Z,21.92
2017-07-20T03:56:47.297Z,22.23
2017-07-20T03:59:18.733Z,22.66
2017-07-20T04:01:50.058Z,22.88
2017-07-20T04:04:22.186Z,23.69
2017-07-20T04:06:53.392Z,23.05
2017-07-20T04:09:24.884Z,22.07
2017-07-20T04:11:56.295Z,22.31
2017-07-20T04:14:27.940Z,22.97
2017-07-20T04:16:59.336Z,23.34
2017-07-20T04:19:30.740Z,23.42
2017-07-20T04:22:03.937Z,23.32
2017-07-20T04:24:35.742Z,23.71
2017-07-20T04:27:07.002Z,23.78
2017-07-20T04:29:39.005Z,23.61
2017-07-20T04:32:10.687Z,22.50
2017-07-20T04:34:42.831Z,22.00
2017-07-20T04:37:14.151Z,21.99
2017-07-20T04:39:45.643Z,21.96
2017-07-20T04:42:17.097Z,22.45
2017-07-20T04:44:49.999Z,23.01
2017-07-20T04:47:21.689Z,22.66
2017-07-20T04:49:53.125Z,22.95
2017-07-20T04:52:25.157Z,23.22
2017-07-20T04:54:57.947Z,23.33
2017-07-20T04:57:30.082Z,24.53
2017-07-20T05:00:04.399Z,24.96
2017-07-20T05:02:36.452Z,25.60
2017-07-20T05:05:09.829Z,24.98
2017-07-20T05:07:41.949Z,25.46
2017-07-20T05:10:13.278Z,25.24
2017-07-20T05:12:45.264Z,25.09
2017-07-20T05:15:16.611Z,25.29
2017-07-20T05:17:48.117Z,25.47
2017-07-20T05:20:20.149Z,24.58
2017-07-20T05:22:52.052Z,23.76
2017-07-20T05:25:23.698Z,23.94
2017-07-20T05:27:55.705Z,24.05
2017-07-20T05:30:27.371Z,24.05
2017-07-20T05:32:59.824Z,23.77
2017-07-20T05:35:31.986Z,23.23
2017-07-20T05:38:04.216Z,23.32
2017-07-20T05:40:37.003Z,23.44
2017-07-20T05:43:09.286Z,24.56
2017-07-20T05:45:41.460Z,24.87
2017-07-20T05:48:12.978Z,24.71
2017-07-20T05:50:44.863Z,26.63
2017-07-20T05:53:16.531Z,27.04
2017-07-20T05:55:49.592Z,26.86
2017-07-20T05:58:21.154Z,26.60
2017-07-20T06:00:52.471Z,27.51
2017-07-20T06:03:24.164Z,27.49
2017-07-20T06:05:55.916Z,28.46
2017-07-20T06:08:27.872Z,28.26
2017-07-20T06:11:00.314Z,28.38
2017-07-20T06:13:32.989Z,28.59
2017-07-20T06:16:04.917Z,27.26
2017-07-20T06:18:36.549Z,27.58
2017-07-20T06:21:10.992Z,28.00
2017-07-20T06:23:42.363Z,30.19
2017-07-20T06:26:13.764Z,29.40
2017-07-20T06:28:45.146Z,30.15
2017-07-20T06:31:18.569Z,29.21
2017-07-20T06:33:49.937Z,27.90
2017-07-20T06:36:21.773Z,27.95
2017-07-20T06:38:53.283Z,27.34
2017-07-20T06:41:24.628Z,27.51
2017-07-20T06:43:57.146Z,27.41
2017-07-20T06:46:28.429Z,27.01
2017-07-20T06:48:59.789Z,26.87
2017-07-20T06:51:32.840Z,26.33
2017-07-20T06:54:06.437Z,26.06
2017-07-20T06:56:40.569Z,25.43
2017-07-20T06:59:12.475Z,25.70
2017-07-20T07:01:44.525Z,25.49
2017-07-20T07:04:17.892Z,24.93
2017-07-20T07:06:51.372Z,25.27
2017-07-20T07:09:24.571Z,25.71
2017-07-20T07:11:58.347Z,25.93
2017-07-20T07:14:30.590Z,26.05
2017-07-20T07:17:04.582Z,26.00
2017-07-20T07:19:37.224Z,25.49
2017-07-20T07:22:09.117Z,26.00
2017-07-20T07:24:41.996Z,26.24
2017-07-20T07:27:19.509Z,26.74
2017-07-20T07:29:52.841Z,26.08
2017-07-20T07:32:26.352Z,26.76
2017-07-20T07:34:59.286Z,26.29
2017-07-20T07:37:31.182Z,25.57
2017-07-20T07:40:03.236Z,25.20
2017-07-20T07:42:36.336Z,25.26
2017-07-20T07:45:08.051Z,25.46
2017-07-20T07:47:39.817Z,25.47
2017-07-20T07:50:11.545Z,25.71
2017-07-20T07:52:44.397Z,25.98
2017-07-20T07:55:16.421Z,26.68
2017-07-20T07:57:47.854Z,26.80
2017-07-20T08:00:19.588Z,27.26
2017-07-20T08:02:50.813Z,27.50
2017-07-20T08:05:22.108Z,27.45
2017-07-20T08:07:53.978Z,28.14
2017-07-20T08:10:25.364Z,30.09
2017-07-20T08:12:57.182Z,30.21
2017-07-20T08:15:29.803Z,29.89
2017-07-20T08:18:01.047Z,30.59
2017-07-20T08:20:32.591Z,31.03
2017-07-20T08:23:04.543Z,30.68
2017-07-20T08:25:37.554Z,29.71
2017-07-20T08:28:10.877Z,30.35
2017-07-20T08:30:44.128Z,32.14
2017-07-20T08:33:22.015Z,34.10
2017-07-20T08:35:53.551Z,34.52
2017-07-20T08:38:25.725Z,31.72
2017-07-20T08:40:57.829Z,30.96
2017-07-20T08:43:29.051Z,32.22
2017-07-20T08:46:01.136Z,31.34
2017-07-20T08:48:35.030Z,31.34
2017-07-20T08:51:07.395Z,31.57
2017-07-20T08:53:39.619Z,30.78
2017-07-20T08:56:11.604Z,30.25
2017-07-20T08:58:44.087Z,31.14
2017-07-20T09:01:15.972Z,31.28
2017-07-20T09:03:47.927Z,31.48
2017-07-20T09:06:19.391Z,31.20
2017-07-20T09:08:51.183Z,31.64
2017-07-20T09:11:23.185Z,31.31
2017-07-20T09:13:54.481Z,30.68
2017-07-20T09:16:26.667Z,29.51
2017-07-20T09:18:58.776Z,29.40
2017-07-20T09:21:30.154Z,30.24
2017-07-20T09:24:02.406Z,30.68
2017-07-20T09:26:34.646Z,29.96
2017-07-20T09:29:06.835Z,28.99
2017-07-20T09:31:38.453Z,28.68
2017-07-20T09:34:10.225Z,28.07
2017-07-20T09:36:43.311Z,27.79
2017-07-20T09:39:16.854Z,27.94
2017-07-20T09:41:48.531Z,27.51
2017-07-20T09:44:21.636Z,27.49
2017-07-20T09:46:53.354Z,27.42
2017-07-20T09:49:25.706Z,27.05
2017-07-20T09:51:57.508Z,26.59
2017-07-20T09:54:29.033Z,26.31
2017-07-20T09:57:00.788Z,26.70
2017-07-20T09:59:32.452Z,26.62
2017-07-20T10:02:03.796Z,26.65
2017-07-20T10:04:36.556Z,26.60
2017-07-20T10:07:08.383Z,26.89
2017-07-20T10:09:40.262Z,26.68
2017-07-20T10:12:13.529Z,26.75
2017-07-20T10:14:44.998Z,26.69
2017-07-20T10:17:17.819Z,27.60
2017-07-20T10:19:50.712Z,27.27
2017-07-20T10:22:22.184Z,27.22
2017-07-20T10:24:53.531Z,27.04
2017-07-20T10:27:25.058Z,27.60
2017-07-20T10:29:56.301Z,27.91
2017-07-20T10:32:27.641Z,27.96
2017-07-20T10:34:59.344Z,28.60
2017-07-20T10:37:31.288Z,27.82
2017-07-20T10:40:04.043Z,27.77
2017-07-20T10:42:35.513Z,27.40
2017-07-20T10:45:06.924Z,27.42
2017-07-20T10:47:38.985Z,28.08
2017-07-20T10:50:10.674Z,27.96
2017-07-20T10:52:42.039Z,27.41
2017-07-20T10:55:14.107Z,27.80
2017-07-20T10:57:46.318Z,27.98
2017-07-20T11:00:18.131Z,28.69
2017-07-20T11:02:49.326Z,28.79
2017-07-20T11:05:20.657Z,28.19
2017-07-20T11:07:55.550Z,28.76
2017-07-20T11:10:26.873Z,29.00
2017-07-20T11:12:59.559Z,29.12
2017-07-20T11:15:31.774Z,28.79
2017-07-20T11:18:03.067Z,27.78
2017-07-20T11:20:34.487Z,27.53
2017-07-20T11:23:05.815Z,27.52
2017-07-20T11:25:37.389Z,27.57
2017-07-20T11:28:09.290Z,27.01
2017-07-20T11:30:40.775Z,27.01
2017-07-20T11:33:12.229Z,27.81
2017-07-20T11:35:43.539Z,27.79
2017-07-20T11:38:19.151Z,27.08
2017-07-20T11:40:50.932Z,28.07
2017-07-20T11:43:22.926Z,29.90
2017-07-20T11:45:54.294Z,29.97
2017-07-20T11:48:26.127Z,30.08
2017-07-20T11:50:57.476Z,30.07
2017-07-20T11:53:29.703Z,29.11
2017-07-20T11:56:01.591Z,29.20
2017-07-20T11:58:32.918Z,29.89
2017-07-20T12:01:04.657Z,29.95
2017-07-20T12:03:35.905Z,30.49
2017-07-20T12:06:07.230Z,33.28
2017-07-20T12:08:38.945Z,35.89
2017-07-20T12:11:10.127Z,37.40
2017-07-20T12:13:42.015Z,38.55
2017-07-20T12:16:13.350Z,37.84
2017-07-20T12:18:44.763Z,36.26
2017-07-20T12:21:16.722Z,34.21
2017-07-20T12:23:47.917Z,33.12
2017-07-20T12:26:19.457Z,32.97
2017-07-20T12:28:51.491Z,33.22
2017-07-20T12:31:22.832Z,33.71
2017-07-20T12:33:54.611Z,34.20
2017-07-20T12:36:26.212Z,33.33
2017-07-20T12:38:57.831Z,33.27
2017-07-20T12:41:29.583Z,33.15
2017-07-20T12:44:01.478Z,32.81
2017-07-20T12:46:33.020Z,32.14
2017-07-20T12:49:05.121Z,31.77
2017-07-20T12:51:36.655Z,31.97
2017-07-20T12:54:08.238Z,31.33
2017-07-20T12:56:40.237Z,31.59
2017-07-20T12:59:11.679Z,31.11
2017-07-20T13:01:43.457Z,30.34
2017-07-20T13:04:16.160Z,30.60
2017-07-20T13:06:47.343Z,30.92
2017-07-20T13:09:19.258Z,31.69
2017-07-20T13:11:51.514Z,31.93
2017-07-20T13:14:22.842Z,32.05
2017-07-20T13:16:54.885Z,31.16
2017-07-20T13:19:26.799Z,30.74
2017-07-20T13:21:58.575Z,30.26
2017-07-20T13:24:30.837Z,30.44
2017-07-20T13:27:02.388Z,29.46
2017-07-20T13:29:34.221Z,29.13
2017-07-20T13:32:05.630Z,28.62
2017-07-20T13:34:38.306Z,27.35
2017-07-20T13:37:09.950Z,27.75
2017-07-20T13:39:41.583Z,26.65
2017-07-20T13:42:12.844Z,25.75
2017-07-20T13:44:45.208Z,25.32
2017-07-20T13:47:16.989Z,25.72
2017-07-20T13:49:48.318Z,25.45
2017-07-20T13:52:20.036Z,25.22
2017-07-20T13:54:51.542Z,24.41
2017-07-20T13:57:23.375Z,23.95
2017-07-20T13:59:54.709Z,23.65
2017-07-20T14:02:26.011Z,23.67
2017-07-20T14:04:57.640Z,23.23
2017-07-20T14:07:28.941Z,22.91
2017-07-20T14:10:00.161Z,23.12
2017-07-20T14:12:31.887Z,22.40
2017-07-20T14:15:03.319Z,22.96
2017-07-20T14:17:34.914Z,22.87
2017-07-20T14:20:06.292Z,22.78
2017-07-20T14:22:37.661Z,22.94
2017-07-20T14:25:09.775Z,22.92
2017-07-20T14:27:41.613Z,23.04
2017-07-20T14:30:13.412Z,22.78
2017-07-20T14:32:45.603Z,22.95
2017-07-20T14:35:16.854Z,22.66
2017-07-20T14:37:48.093Z,22.88
2017-07-20T14:40:19.668Z,22.44
2017-07-20T14:42:51.179Z,22.80
2017-07-20T14:45:22.945Z,23.13
2017-07-20T14:47:54.198Z,23.46
2017-07-20T14:50:25.403Z,23.64
2017-07-20T14:52:57.339Z,22.92
2017-07-20T14:55:28.649Z,23.26
2017-07-20T14:57:59.982Z,23.53
2017-07-20T15:00:32.028Z,23.30
2017-07-20T15:03:04.255Z,23.19
2017-07-20T15:05:37.287Z,23.31
2017-07-20T15:08:09.872Z,22.85
2017-07-20T15:10:41.606Z,22.77
2017-07-20T15:13:20.504Z,22.83
2017-07-20T15:15:52.086Z,23.07
2017-07-20T15:18:23.705Z,23.05
2017-07-20T15:20:56.270Z,23.42
2017-07-20T15:23:33.308Z,23.35
2017-07-20T15:26:06.963Z,23.43
2017-07-20T15:28:38.248Z,23.33
2017-07-20T15:31:11.092Z,23.38
2017-07-20T15:33:43.174Z,22.92
2017-07-20T15:36:14.956Z,22.96
2017-07-20T15:38:48.400Z,23.03
2017-07-20T15:41:21.840Z,23.03
2017-07-20T15:43:54.395Z,22.98
2017-07-20T15:46:28.110Z,23.17
2017-07-20T15:48:59.435Z,23.18
2017-07-20T15:51:31.946Z,23.53
2017-07-20T15:54:03.501Z,23.50
2017-07-20T15:56:37.361Z,23.89
2017-07-20T15:59:09.042Z,24.48
2017-07-20T16:01:41.787Z,24.54
2017-07-20T16:04:13.287Z,24.86
2017-07-20T16:06:45.957Z,25.88
2017-07-20T16:09:17.515Z,26.46
2017-07-20T16:11:50.125Z,26.17
2017-07-20T16:14:21.836Z,25.13
2017-07-20T16:16:53.285Z,25.00
2017-07-20T16:19:25.759Z,25.57
2017-07-20T16:21:57.704Z,25.45
2017-07-20T16:24:28.940Z,25.47
2017-07-20T17:04:16.949Z,26.93
2017-07-20T17:06:46.868Z,28.08
2017-07-20T18:06:50.543Z,27.67
2017-07-20T18:09:24.455Z,27.90
2017-07-20T18:11:54.953Z,28.35
2017-07-20T18:17:57.814Z,28.14
2017-07-20T18:20:28.058Z,27.97
2017-07-20T18:26:23.404Z,27.96
2017-07-20T18:28:53.186Z,27.71
2017-07-20T18:31:23.526Z,27.83
2017-07-20T18:33:54.338Z,28.04
2017-07-20T18:36:25.463Z,28.22
2017-07-20T18:38:55.893Z,27.96
2017-07-20T18:41:25.629Z,27.93
2017-07-20T18:43:55.399Z,27.75
2017-07-20T18:46:25.982Z,27.62
2017-07-20T18:48:55.864Z,27.55
2017-07-20T18:51:27.203Z,27.64
2017-07-20T18:53:57.327Z,27.49
2017-07-20T18:56:28.067Z,28.17
2017-07-20T18:58:58.295Z,28.18
2017-07-20T19:01:29.743Z,28.30
2017-07-20T19:03:59.862Z,28.05
2017-07-20T19:06:33.515Z,27.88
2017-07-20T19:09:03.593Z,28.12
2017-07-20T19:11:47.451Z,28.04
2017-07-20T19:14:22.838Z,28.18
2017-07-20T19:16:53.820Z,28.05
2017-07-20T19:19:24.229Z,28.02
2017-07-20T19:21:58.323Z,27.95
2017-07-20T19:24:29.229Z,27.97
2017-07-20T19:27:01.570Z,28.03
2017-07-20T19:29:31.514Z,28.10
2017-07-20T19:32:04.802Z,27.50
2017-07-20T19:34:35.851Z,27.55
2017-07-20T19:37:06.330Z,27.25
2017-07-20T19:39:37.748Z,26.94
2017-07-20T19:42:12.232Z,27.24
2017-07-20T19:44:43.353Z,27.53
2017-07-20T19:47:13.744Z,27.48
2017-07-20T19:49:46.450Z,26.86
2017-07-20T19:52:35.388Z,26.97
2017-07-20T19:55:06.692Z,27.18
2017-07-20T19:57:37.796Z,27.14
2017-07-20T20:00:09.253Z,27.02
2017-07-20T20:02:43.376Z,27.30
2017-07-20T20:05:14.206Z,27.19
2017-07-20T20:07:44.679Z,26.89
2017-07-20T20:10:18.156Z,26.79
2017-07-20T20:12:52.424Z,27.19
2017-07-20T20:15:23.977Z,26.42
2017-07-20T20:17:57.636Z,26.50
2017-07-20T20:20:28.078Z,25.95
2017-07-20T20:23:05.732Z,26.77
2017-07-20T20:25:36.420Z,26.26
2017-07-20T20:28:07.914Z,26.79
2017-07-20T20:30:37.734Z,26.38
2017-07-20T20:33:08.003Z,26.61
2017-07-20T20:35:38.424Z,26.80
2017-07-20T20:38:09.597Z,26.90
2017-07-20T20:40:39.989Z,26.62
2017-07-20T20:43:10.105Z,26.40
2017-07-20T20:45:40.019Z,26.17
2017-07-20T20:48:10.221Z,25.84
2017-07-20T20:50:40.287Z,26.07
2017-07-20T20:53:10.624Z,26.31
2017-07-20T20:55:41.441Z,26.27
2017-07-20T20:58:11.950Z,26.21
2017-07-20T21:00:41.748Z,26.04
2017-07-20T21:03:12.356Z,25.90
2017-07-20T21:05:42.253Z,26.35
2017-07-20T21:08:12.292Z,26.59
2017-07-20T21:10:42.427Z,25.86
2017-07-20T21:13:12.210Z,25.68
2017-07-20T21:15:42.602Z,25.55
2017-07-20T21:18:14.231Z,25.57
2017-07-20T21:20:44.303Z,25.92
2017-07-20T21:23:18.278Z,25.95
2017-07-20T21:25:48.187Z,26.51
2017-07-20T21:28:19.882Z,26.08
2017-07-20T21:30:50.812Z,25.98
2017-07-20T21:33:21.946Z,25.95
2017-07-20T21:35:52.217Z,25.90
2017-07-20T21:38:22.582Z,25.91
2017-07-20T21:40:53.341Z,25.95
2017-07-20T21:43:23.602Z,25.64
2017-07-20T21:45:54.020Z,26.22
2017-07-20T21:48:23.796Z,26.94
2017-07-20T21:50:55.375Z,26.21
2017-07-20T21:53:30.832Z,25.89
2017-07-20T21:56:00.798Z,25.82
2017-07-20T21:58:31.398Z,25.79
2017-07-20T22:01:01.748Z,25.82
2017-07-20T22:03:31.663Z,25.93
2017-07-20T22:06:02.128Z,25.82
2017-07-20T22:08:32.126Z,25.75
2017-07-20T22:11:02.714Z,26.21
2017-07-20T22:13:33.165Z,26.07
2017-07-20T22:16:02.918Z,25.66
2017-07-20T22:18:33.089Z,25.97
2017-07-20T22:21:03.218Z,25.63
2017-07-20T22:23:33.522Z,25.44
